createdAt,value
2022-08-22T00:00:55.005Z,92.22
2022-08-22T00:02:52.802Z,92.48
2022-08-22T00:03:03.075Z,91.98
2022-08-22T00:03:11.356Z,92.88
2022-08-22T00:03:32.698Z,92.71
2022-08-22T00:06:22.430Z,92.47
2022-08-22T00:09:01.821Z,92.78
2022-08-22T00:11:43.675Z,92.14
2022-08-22T00:14:20.817Z,92.03
2022-08-22T00:17:01.689Z,91.92
2022-08-22T00:19:43.895Z,92.21
2022-08-22T00:22:20.718Z,92.01
2022-08-22T00:24:57.500Z,92.13
2022-08-22T00:27:32.702Z,91.95
2022-08-22T00:30:09.251Z,92.35
2022-08-22T00:32:43.520Z,92.99
2022-08-22T00:35:20.927Z,92.48
2022-08-22T00:37:58.178Z,91.97
2022-08-22T00:40:37.236Z,92.02
2022-08-22T00:43:31.035Z,92.18
2022-08-22T00:46:21.329Z,92.23
2022-08-22T00:49:09.740Z,92.82
2022-08-22T00:52:04.540Z,93.30
2022-08-22T00:54:53.191Z,92.75
2022-08-22T00:57:54.633Z,92.69
2022-08-22T01:01:12.656Z,93.09
2022-08-22T01:04:13.456Z,92.69
2022-08-22T01:06:54.309Z,93.04
2022-08-22T01:09:36.404Z,92.60
2022-08-22T01:12:25.196Z,93.04
2022-08-22T01:14:59.272Z,92.73
2022-08-22T01:18:00.697Z,92.59
2022-08-22T01:20:59.539Z,92.95
2022-08-22T01:24:07.409Z,93.43
2022-08-22T01:27:14.286Z,93.13
2022-08-22T01:30:16.475Z,92.78
2022-08-22T01:33:25.458Z,93.06
2022-08-22T01:36:29.688Z,92.77
2022-08-22T01:39:22.051Z,92.82
2022-08-22T01:42:31.880Z,92.91
2022-08-22T01:45:44.709Z,92.85
2022-08-22T01:48:20.265Z,92.99
2022-08-22T01:50:53.553Z,93.69
2022-08-22T01:53:29.280Z,93.48
2022-08-22T01:56:08.460Z,93.19
2022-08-22T01:58:40.302Z,93.10
2022-08-22T02:01:24.564Z,92.99
2022-08-22T02:04:01.485Z,93.08
2022-08-22T02:06:41.998Z,93.00
2022-08-22T02:09:24.349Z,92.91
2022-08-22T02:11:56.671Z,92.91
2022-08-22T02:14:39.167Z,92.82
2022-08-22T02:17:18.445Z,92.57
2022-08-22T02:19:55.495Z,92.50
2022-08-22T02:22:34.174Z,92.95
2022-08-22T02:25:10.497Z,93.58
2022-08-22T02:27:50.401Z,93.26
2022-08-22T02:30:23.637Z,93.58
2022-08-22T02:33:04.193Z,93.73
2022-08-22T02:35:36.820Z,93.83
2022-08-22T02:38:20.490Z,93.81
2022-08-22T02:41:05.164Z,93.47
2022-08-22T02:43:41.171Z,93.00
2022-08-22T02:46:18.586Z,92.59
2022-08-22T02:48:56.169Z,92.30
2022-08-22T02:51:35.953Z,92.17
2022-08-22T02:54:13.546Z,92.02
2022-08-22T02:56:50.909Z,92.30
2022-08-22T02:59:32.605Z,92.20
2022-08-22T03:02:30.177Z,92.21
2022-08-22T03:05:01.405Z,92.33
2022-08-22T03:07:42.290Z,92.51
2022-08-22T03:10:21.324Z,92.61
2022-08-22T03:13:00.583Z,92.64
2022-08-22T03:15:37.992Z,92.61
2022-08-22T03:18:19.530Z,92.39
2022-08-22T03:20:54.076Z,92.48
2022-08-22T03:23:35.677Z,92.49
2022-08-22T03:26:14.452Z,92.53
2022-08-22T03:28:59.093Z,92.55
2022-08-22T03:31:30.240Z,92.26
2022-08-22T03:34:22.441Z,92.21
2022-08-22T03:37:03.658Z,92.60
2022-08-22T03:39:52.449Z,92.46
2022-08-22T03:42:56.261Z,92.24
2022-08-22T03:46:03.357Z,92.63
2022-08-22T03:48:58.122Z,92.38
2022-08-22T03:51:41.792Z,92.66
2022-08-22T03:54:34.918Z,92.77
2022-08-22T03:57:28.758Z,92.69
2022-08-22T04:00:11.517Z,92.74
2022-08-22T04:03:06.084Z,93.02
2022-08-22T04:06:12.605Z,92.95
2022-08-22T04:08:59.663Z,92.96
2022-08-22T04:12:09.004Z,92.79
2022-08-22T04:14:57.219Z,93.11
2022-08-22T04:17:34.511Z,93.22
2022-08-22T04:20:33.778Z,93.03
2022-08-22T04:23:25.422Z,93.20
2022-08-22T04:25:58.559Z,93.58
2022-08-22T04:28:35.456Z,93.97
2022-08-22T04:31:09.442Z,93.55
2022-08-22T04:33:44.902Z,92.88
2022-08-22T04:36:21.872Z,92.97
2022-08-22T04:38:55.009Z,92.73
2022-08-22T04:41:34.518Z,92.67
2022-08-22T04:44:07.033Z,92.84
2022-08-22T04:46:42.366Z,92.61
2022-08-22T04:49:16.472Z,92.49
2022-08-22T04:51:50.477Z,92.52
2022-08-22T04:54:38.170Z,93.47
2022-08-22T04:57:22.378Z,93.61
2022-08-22T04:59:51.099Z,93.82
2022-08-22T05:02:24.675Z,94.17
2022-08-22T05:05:01.767Z,94.13
2022-08-22T05:07:36.436Z,93.56
2022-08-22T05:10:12.140Z,93.25
2022-08-22T05:12:46.167Z,92.64
2022-08-22T05:15:23.188Z,92.21
2022-08-22T05:17:54.990Z,91.69
2022-08-22T05:20:28.479Z,91.82
2022-08-22T05:23:01.497Z,91.84
2022-08-22T05:25:39.045Z,91.40
2022-08-22T05:28:13.315Z,91.26
2022-08-22T05:30:41.675Z,91.71
2022-08-22T05:33:17.495Z,91.65
2022-08-22T05:35:51.561Z,91.54
2022-08-22T05:38:30.825Z,91.71
2022-08-22T05:41:06.704Z,91.64
2022-08-22T05:43:39.680Z,91.79
2022-08-22T05:46:10.976Z,91.95
2022-08-22T05:51:51.616Z,92.27
2022-08-22T05:54:33.649Z,92.43
2022-08-22T05:57:13.957Z,92.59
2022-08-22T05:59:45.214Z,92.34
2022-08-22T06:02:20.571Z,92.73
2022-08-22T06:04:52.476Z,92.73
2022-08-22T06:07:24.779Z,92.76
2022-08-22T06:10:08.546Z,92.90
2022-08-22T06:12:43.240Z,93.06
2022-08-22T06:15:21.058Z,93.13
2022-08-22T06:17:52.228Z,93.15
2022-08-22T06:20:23.429Z,92.72
2022-08-22T06:22:54.707Z,92.44
2022-08-22T06:25:26.327Z,92.81
2022-08-22T06:27:56.171Z,92.31
2022-08-22T06:30:30.702Z,91.55
2022-08-22T06:33:03.875Z,91.95
2022-08-22T06:35:54.969Z,91.10
2022-08-22T06:38:28.508Z,91.61
2022-08-22T06:40:58.296Z,91.87
2022-08-22T06:43:26.852Z,91.59
2022-08-22T06:45:56.548Z,91.08
2022-08-22T06:48:25.243Z,90.62
2022-08-22T06:50:58.936Z,90.54
2022-08-22T06:53:33.908Z,90.66
2022-08-22T06:56:06.069Z,91.58
2022-08-22T06:58:38.966Z,91.77
2022-08-22T07:01:14.054Z,91.60
2022-08-22T07:03:46.208Z,91.69
2022-08-22T07:06:17.322Z,91.19
2022-08-22T07:08:46.061Z,90.84
2022-08-22T07:11:18.661Z,91.59
2022-08-22T07:13:52.734Z,91.86
2022-08-22T07:16:29.981Z,91.98
2022-08-22T07:18:59.055Z,91.88
2022-08-22T07:21:29.397Z,91.13
2022-08-22T07:24:01.373Z,91.38
2022-08-22T07:26:34.879Z,90.48
2022-08-22T07:29:11.351Z,91.20
2022-08-22T07:31:51.257Z,90.71
2022-08-22T07:34:34.095Z,90.53
2022-08-22T07:37:07.540Z,90.25
2022-08-22T07:39:39.895Z,89.38
2022-08-22T07:42:17.178Z,90.90
2022-08-22T07:45:02.113Z,89.93
2022-08-22T07:47:46.013Z,89.53
2022-08-22T07:50:24.749Z,89.20
2022-08-22T07:52:53.233Z,88.58
2022-08-22T07:55:24.169Z,89.36
2022-08-22T07:57:56.945Z,89.15
2022-08-22T08:00:26.562Z,87.98
2022-08-22T08:03:00.340Z,87.55
2022-08-22T08:05:36.033Z,87.00
2022-08-22T08:08:09.197Z,86.35
2022-08-22T08:10:44.077Z,86.07
2022-08-22T08:13:17.900Z,86.53
2022-08-22T08:15:46.685Z,87.22
2022-08-22T08:18:23.518Z,86.62
2022-08-22T08:20:53.886Z,87.24
2022-08-22T08:23:23.742Z,87.46
2022-08-22T08:26:04.649Z,88.57
2022-08-22T08:28:40.156Z,88.16
2022-08-22T08:31:23.166Z,88.21
2022-08-22T08:33:59.574Z,87.59
2022-08-22T08:36:39.461Z,86.73
2022-08-22T08:39:19.446Z,86.25
2022-08-22T08:42:13.474Z,86.96
2022-08-22T08:45:17.272Z,87.35
2022-08-22T08:48:07.588Z,86.48
2022-08-22T08:51:01.957Z,87.19
2022-08-22T08:53:54.185Z,87.58
2022-08-22T08:56:31.789Z,86.72
2022-08-22T08:59:10.059Z,87.33
2022-08-22T09:02:06.207Z,87.61
2022-08-22T09:05:08.199Z,87.59
2022-08-22T09:08:24.788Z,88.05
2022-08-22T09:11:31.101Z,87.98
2022-08-22T09:14:16.599Z,87.64
2022-08-22T09:17:07.122Z,88.08
2022-08-22T09:19:54.926Z,88.47
2022-08-22T09:22:49.974Z,88.70
2022-08-22T09:25:25.552Z,87.36
2022-08-22T09:28:01.893Z,87.19
2022-08-22T09:30:54.133Z,86.63
2022-08-22T09:33:28.299Z,86.42
2022-08-22T09:36:05.345Z,86.16
2022-08-22T09:38:47.999Z,86.18
2022-08-22T09:41:29.523Z,86.08
2022-08-22T09:44:09.661Z,83.53
2022-08-22T09:46:54.181Z,84.22
2022-08-22T09:49:34.398Z,83.41
2022-08-22T09:52:14.541Z,83.35
2022-08-22T09:55:16.023Z,84.69
2022-08-22T09:57:53.616Z,83.27
2022-08-22T10:00:39.537Z,83.24
2022-08-22T10:03:24.522Z,82.27
2022-08-22T10:06:00.524Z,81.87
2022-08-22T10:08:47.549Z,82.19
2022-08-22T10:11:31.822Z,80.59
2022-08-22T10:14:11.661Z,78.79
2022-08-22T10:16:54.693Z,81.37
2022-08-22T10:19:52.970Z,81.35
2022-08-22T10:22:46.371Z,80.74
2022-08-22T10:25:40.487Z,81.78
2022-08-22T10:28:40.069Z,81.06
2022-08-22T10:31:24.218Z,78.98
2022-08-22T10:34:10.734Z,80.81
2022-08-22T10:36:53.902Z,81.66
2022-08-22T10:39:33.633Z,82.04
2022-08-22T10:42:23.537Z,82.21
2022-08-22T10:45:10.346Z,82.88
2022-08-22T10:47:45.346Z,82.50
2022-08-22T10:50:21.338Z,83.84
2022-08-22T10:53:16.416Z,83.72
2022-08-22T10:55:51.884Z,82.49
2022-08-22T10:58:30.068Z,81.49
2022-08-22T11:01:02.172Z,82.07
2022-08-22T11:03:55.913Z,82.45
2022-08-22T11:06:31.932Z,84.86
2022-08-22T11:09:21.313Z,86.25
2022-08-22T11:11:57.318Z,85.09
2022-08-22T11:15:03.121Z,83.95
2022-08-22T11:18:12.960Z,84.00
2022-08-22T11:20:52.639Z,85.98
2022-08-22T11:23:33.073Z,82.45
2022-08-22T11:26:12.656Z,84.46
2022-08-22T11:29:12.322Z,83.93
2022-08-22T11:31:51.572Z,82.63
2022-08-22T11:34:40.801Z,83.25
2022-08-22T11:37:19.964Z,84.68
2022-08-22T11:40:06.492Z,81.21
2022-08-22T11:42:48.141Z,77.14
2022-08-22T11:45:25.462Z,81.82
2022-08-22T11:48:02.643Z,81.40
2022-08-22T11:50:37.375Z,82.23
2022-08-22T11:53:25.943Z,80.71
2022-08-22T11:56:09.630Z,82.08
2022-08-22T11:58:53.240Z,80.59
2022-08-22T12:01:36.838Z,82.68
2022-08-22T12:04:17.797Z,79.42
2022-08-22T12:06:54.507Z,81.88
2022-08-22T12:09:45.613Z,80.31
2022-08-22T12:12:25.528Z,79.85
2022-08-22T12:15:03.083Z,79.64
2022-08-22T12:18:06.096Z,78.92
2022-08-22T12:20:54.915Z,80.39
2022-08-22T12:23:49.136Z,77.93
2022-08-22T12:26:28.191Z,77.20
2022-08-22T12:29:16.795Z,79.41
2022-08-22T12:32:27.889Z,79.65
2022-08-22T12:35:01.299Z,78.94
2022-08-22T12:37:52.736Z,78.86
2022-08-22T12:40:30.879Z,78.91
2022-08-22T12:43:15.070Z,79.19
2022-08-22T12:46:05.804Z,79.44
2022-08-22T12:48:53.426Z,80.94
2022-08-22T12:51:31.485Z,82.49
2022-08-22T12:54:29.144Z,84.15
2022-08-22T12:57:10.474Z,86.47
2022-08-22T12:59:55.494Z,86.85
2022-08-22T13:02:34.766Z,88.88
2022-08-22T13:05:11.033Z,89.33
2022-08-22T13:07:42.894Z,88.31
2022-08-22T13:10:33.839Z,89.71
2022-08-22T13:13:03.937Z,88.71
2022-08-22T13:15:46.354Z,89.17
2022-08-22T13:18:31.190Z,89.43
2022-08-22T13:21:04.012Z,89.08
2022-08-22T13:23:39.956Z,89.09
2022-08-22T13:26:32.853Z,88.15
2022-08-22T13:29:26.028Z,88.64
2022-08-22T13:32:01.248Z,88.67
2022-08-22T13:34:40.023Z,88.90
2022-08-22T13:37:12.714Z,89.34
2022-08-22T13:39:46.054Z,89.07
2022-08-22T13:42:27.768Z,89.10
2022-08-22T13:45:02.648Z,89.35
2022-08-22T13:47:34.495Z,88.33
2022-08-22T13:50:14.007Z,89.01
2022-08-22T13:52:55.015Z,88.80
2022-08-22T13:55:31.233Z,88.58
2022-08-22T13:58:07.741Z,89.29
2022-08-22T14:01:19.030Z,91.04
2022-08-22T14:03:51.388Z,91.06
2022-08-22T14:06:37.495Z,92.21
2022-08-22T14:13:40.810Z,92.77
2022-08-22T14:16:15.122Z,92.86
2022-08-22T14:18:49.157Z,92.55
2022-08-22T14:21:27.757Z,92.61
2022-08-22T14:24:01.602Z,92.60
2022-08-22T14:26:32.849Z,91.51
2022-08-22T14:29:08.264Z,91.41
2022-08-22T14:31:37.107Z,90.87
2022-08-22T14:34:10.671Z,91.18
2022-08-22T14:36:46.835Z,90.93
2022-08-22T14:39:28.574Z,91.19
2022-08-22T14:42:06.108Z,90.92
2022-08-22T14:44:44.830Z,91.02
2022-08-22T14:47:52.779Z,90.73
2022-08-22T14:50:35.542Z,90.93
2022-08-22T14:53:07.343Z,90.22
2022-08-22T14:55:39.011Z,90.94
2022-08-22T14:58:17.314Z,90.58
2022-08-22T15:00:50.052Z,90.60
2022-08-22T15:03:26.564Z,90.50
2022-08-22T15:05:57.875Z,89.71
2022-08-22T15:08:32.454Z,89.82
2022-08-22T15:11:13.627Z,89.79
2022-08-22T15:13:51.615Z,90.01
2022-08-22T15:16:24.224Z,90.47
2022-08-22T15:18:52.865Z,90.04
2022-08-22T15:21:24.779Z,90.52
2022-08-22T15:23:56.454Z,89.64
2022-08-22T15:26:30.757Z,90.11
2022-08-22T15:29:16.167Z,89.30
2022-08-22T15:31:47.042Z,89.32
2022-08-22T15:34:24.027Z,90.15
2022-08-22T15:37:27.401Z,89.87
2022-08-22T15:40:08.106Z,89.62
2022-08-22T15:42:44.852Z,90.17
2022-08-22T15:45:33.948Z,90.10
2022-08-22T15:48:04.968Z,89.95
2022-08-22T15:50:38.241Z,90.17
2022-08-22T15:53:21.328Z,89.42
2022-08-22T15:56:29.101Z,90.28
2022-08-22T15:59:30.438Z,89.57
2022-08-22T16:02:29.293Z,90.62
2022-08-22T16:05:21.915Z,90.24
2022-08-22T16:08:02.874Z,90.47
2022-08-22T16:10:36.388Z,89.90
2022-08-22T16:13:17.716Z,89.69
2022-08-22T16:16:09.646Z,89.12
2022-08-22T16:19:16.961Z,88.49
2022-08-22T16:22:13.447Z,88.79
2022-08-22T16:25:10.355Z,88.98
2022-08-22T16:27:53.787Z,90.28
2022-08-22T16:30:34.726Z,89.77
2022-08-22T16:33:17.881Z,90.35
2022-08-22T16:36:25.988Z,89.71
2022-08-22T16:38:58.224Z,89.33
2022-08-22T16:41:36.843Z,89.18
2022-08-22T16:44:17.879Z,89.01
2022-08-22T16:46:47.751Z,89.44
2022-08-22T16:49:28.790Z,89.47
2022-08-22T16:52:35.371Z,89.53
2022-08-22T16:55:05.945Z,89.44
2022-08-22T16:57:54.482Z,89.09
2022-08-22T17:00:39.272Z,88.89
2022-08-22T17:03:18.250Z,89.09
2022-08-22T17:05:57.949Z,89.07
2022-08-22T17:08:43.024Z,88.66
2022-08-22T17:11:22.919Z,88.05
2022-08-22T17:14:03.386Z,88.03
2022-08-22T17:16:53.782Z,87.52
2022-08-22T17:19:36.575Z,88.18
2022-08-22T17:22:17.349Z,87.98
2022-08-22T17:24:50.458Z,88.63
2022-08-22T17:27:31.546Z,89.23
2022-08-22T17:30:03.706Z,88.64
2022-08-22T17:32:38.783Z,88.66
2022-08-22T17:35:16.988Z,88.47
2022-08-22T17:38:02.483Z,87.77
2022-08-22T17:40:42.612Z,87.49
2022-08-22T17:43:22.990Z,88.77
2022-08-22T17:46:06.485Z,88.00
2022-08-22T17:48:48.299Z,87.20
2022-08-22T17:51:28.817Z,87.98
2022-08-22T17:54:05.808Z,87.62
2022-08-22T17:56:40.531Z,87.80
2022-08-22T17:59:21.005Z,88.79
2022-08-22T18:01:52.218Z,89.17
2022-08-22T18:04:34.625Z,89.73
2022-08-22T18:07:26.358Z,91.28
2022-08-22T18:10:01.017Z,90.89
2022-08-22T18:12:34.945Z,91.26
2022-08-22T18:15:10.142Z,91.70
2022-08-22T18:17:42.635Z,91.61
2022-08-22T18:20:16.903Z,92.19
2022-08-22T18:22:50.981Z,92.41
2022-08-22T18:25:36.822Z,92.43
2022-08-22T18:28:10.490Z,91.60
2022-08-22T18:30:52.828Z,92.04
2022-08-22T18:33:32.839Z,90.80
2022-08-22T18:36:10.661Z,90.67
2022-08-22T18:38:52.022Z,90.58
2022-08-22T18:41:31.487Z,91.11
2022-08-22T18:44:01.272Z,91.27
2022-08-22T18:46:43.177Z,90.71
2022-08-22T18:49:16.122Z,89.81
2022-08-22T18:51:45.135Z,89.41
2022-08-22T18:54:33.399Z,89.68
2022-08-22T18:57:11.856Z,89.67
2022-08-22T19:00:00.853Z,90.06
2022-08-22T19:02:56.011Z,90.96
2022-08-22T19:05:50.072Z,91.77
2022-08-22T19:08:38.696Z,91.88
2022-08-22T19:11:22.216Z,92.00
2022-08-22T19:14:17.930Z,92.00
2022-08-22T19:17:11.027Z,92.42
2022-08-22T19:20:13.805Z,92.22
2022-08-22T19:22:42.890Z,92.84
2022-08-22T19:25:27.863Z,92.70
2022-08-22T19:28:27.096Z,92.18
2022-08-22T19:31:23.692Z,92.31
2022-08-22T19:34:11.956Z,92.08
2022-08-22T19:36:46.088Z,91.60
2022-08-22T19:39:54.416Z,91.10
2022-08-22T19:42:40.239Z,91.79
2022-08-22T19:45:26.040Z,91.52
2022-08-22T19:47:58.869Z,91.79
2022-08-22T19:50:33.187Z,91.95
2022-08-22T19:53:21.008Z,91.68
2022-08-22T19:56:06.373Z,91.20
2022-08-22T19:58:48.005Z,91.29
2022-08-22T20:01:36.585Z,91.31
2022-08-22T20:04:11.080Z,90.63
2022-08-22T20:06:46.718Z,90.92
2022-08-22T20:09:25.140Z,90.17
2022-08-22T20:12:05.111Z,91.10
2022-08-22T20:14:35.819Z,91.93
2022-08-22T20:17:11.988Z,91.52
2022-08-22T20:22:45.564Z,91.69
2022-08-22T20:25:42.677Z,91.87
2022-08-22T20:28:25.791Z,90.99
2022-08-22T20:30:57.839Z,91.08
2022-08-22T20:33:28.505Z,91.11
2022-08-22T20:36:00.843Z,90.97
2022-08-22T20:38:35.018Z,90.80
2022-08-22T20:41:16.125Z,90.69
2022-08-22T20:43:53.300Z,90.33
2022-08-22T20:46:37.483Z,90.71
2022-08-22T20:49:18.470Z,90.69
2022-08-22T20:51:53.625Z,90.23
2022-08-22T20:54:24.887Z,90.72
2022-08-22T20:57:05.511Z,91.02
2022-08-22T20:59:37.167Z,91.22
2022-08-22T21:02:13.644Z,91.83
2022-08-22T21:04:49.961Z,91.32
2022-08-22T21:07:26.799Z,91.51
2022-08-22T21:10:21.619Z,91.00
2022-08-22T21:13:14.101Z,90.86
2022-08-22T21:15:44.983Z,90.88
2022-08-22T21:18:15.276Z,90.69
2022-08-22T21:20:43.528Z,90.10
2022-08-22T21:23:14.462Z,90.11
2022-08-22T21:25:52.091Z,89.61
2022-08-22T21:28:33.030Z,89.50
2022-08-22T21:31:10.158Z,89.38
2022-08-22T21:33:42.653Z,89.19
2022-08-22T21:36:13.596Z,88.12
2022-08-22T21:38:47.846Z,90.05
2022-08-22T21:41:26.078Z,91.08
2022-08-22T21:43:55.792Z,90.80
2022-08-22T21:46:27.588Z,90.98
2022-08-22T21:49:02.177Z,91.61
2022-08-22T21:51:40.697Z,91.69
2022-08-22T21:54:33.281Z,89.83
2022-08-22T21:57:18.271Z,90.66
2022-08-22T21:59:52.048Z,89.94
2022-08-22T22:02:36.705Z,90.40
2022-08-22T22:05:11.341Z,89.48
2022-08-22T22:07:41.483Z,89.69
2022-08-22T22:10:12.280Z,90.49
2022-08-22T22:12:42.269Z,90.57
2022-08-22T22:15:15.822Z,90.72
2022-08-22T22:17:44.013Z,90.90
2022-08-22T22:20:13.318Z,91.74
2022-08-22T22:22:46.631Z,92.24
2022-08-22T22:25:41.357Z,92.28
2022-08-22T22:28:05.772Z,91.62
2022-08-22T22:30:37.340Z,91.87
2022-08-22T22:33:05.747Z,91.54
2022-08-22T22:35:34.069Z,91.51
2022-08-22T22:38:02.412Z,92.43
2022-08-22T22:40:31.007Z,91.97
2022-08-22T22:43:00.178Z,92.11
2022-08-22T22:45:28.321Z,92.67
2022-08-22T22:47:58.216Z,92.27
2022-08-22T22:50:26.772Z,91.90
2022-08-22T22:52:55.075Z,91.19
2022-08-22T22:55:24.212Z,91.62
2022-08-22T22:57:58.933Z,91.48
2022-08-22T23:00:31.120Z,91.49
2022-08-22T23:03:04.940Z,90.63
2022-08-22T23:05:33.583Z,91.03
2022-08-22T23:08:03.152Z,91.49
2022-08-22T23:10:35.127Z,91.39
2022-08-22T23:13:05.938Z,91.96
2022-08-22T23:15:35.012Z,92.76
2022-08-22T23:18:04.567Z,92.86
2022-08-22T23:20:32.686Z,92.95
2022-08-22T23:23:00.691Z,93.40
2022-08-22T23:25:28.781Z,93.61
2022-08-22T23:27:57.442Z,94.11
2022-08-22T23:30:26.470Z,93.93
2022-08-22T23:32:55.771Z,93.69
2022-08-22T23:35:25.333Z,93.60
2022-08-22T23:37:53.373Z,93.49
2022-08-22T23:40:22.592Z,93.52
2022-08-22T23:42:50.637Z,94.32
2022-08-22T23:45:18.882Z,93.56
2022-08-22T23:47:47.011Z,93.90
2022-08-22T23:50:15.161Z,93.61
2022-08-22T23:52:44.641Z,93.39
2022-08-22T23:55:14.315Z,93.09
2022-08-22T23:57:42.362Z,92.87
